createdAt,value
2018-01-10T00:01:21.970Z,26.98
2018-01-10T00:03:51.014Z,28.87
2018-01-10T00:06:32.510Z,26.05
2018-01-10T00:09:02.867Z,26.77
2018-01-10T00:11:34.974Z,32.05
2018-01-10T00:14:28.530Z,27.90
2018-01-10T00:17:10.498Z,26.20
2018-01-10T00:20:01.679Z,26.12
2018-01-10T00:22:33.306Z,27.42
2018-01-10T00:25:02.302Z,25.58
2018-01-10T00:27:31.314Z,26.92
2018-01-10T00:30:02.158Z,24.95
2018-01-10T00:35:31.930Z,26.67
2018-01-10T00:38:06.335Z,25.80
2018-01-10T00:40:39.086Z,24.75
2018-01-10T00:43:10.067Z,25.20
2018-01-10T00:45:40.182Z,29.10
2018-01-10T00:48:10.226Z,30.10
2018-01-10T00:50:38.270Z,28.65
2018-01-10T00:53:16.062Z,28.42
2018-01-10T00:55:44.222Z,29.23
2018-01-10T00:58:12.321Z,27.05
2018-01-10T01:00:52.186Z,27.17
2018-01-10T01:03:25.078Z,26.33
2018-01-10T01:05:53.142Z,24.83
2018-01-10T01:08:22.994Z,27.10
2018-01-10T01:10:54.966Z,29.02
2018-01-10T01:13:24.030Z,29.12
2018-01-10T01:16:04.708Z,31.40
2018-01-10T01:18:33.693Z,29.05
2018-01-10T01:21:19.270Z,30.95
2018-01-10T01:24:00.678Z,32.03
2018-01-10T01:26:33.125Z,32.50
2018-01-10T01:29:01.221Z,30.60
2018-01-10T01:31:29.262Z,30.50
2018-01-10T01:34:04.074Z,28.02
2018-01-10T01:36:33.046Z,30.08
2018-01-10T01:39:03.164Z,32.72
2018-01-10T01:41:32.058Z,31.77
2018-01-10T01:44:01.066Z,29.27
2018-01-10T01:46:30.882Z,28.08
2018-01-10T01:49:03.635Z,28.65
2018-01-10T01:51:35.282Z,27.52
2018-01-10T01:54:05.258Z,31.02
2018-01-10T01:56:38.677Z,30.25
2018-01-10T01:59:26.990Z,31.17
2018-01-10T02:01:55.806Z,33.67
2018-01-10T02:04:23.829Z,31.98
2018-01-10T02:07:03.245Z,33.97
2018-01-10T02:09:32.434Z,30.52
2018-01-10T02:12:10.426Z,35.00
2018-01-10T02:14:38.485Z,30.37
2018-01-10T02:17:11.478Z,33.13
2018-01-10T02:19:40.546Z,35.00
2018-01-10T02:22:14.702Z,32.22
2018-01-10T02:24:42.741Z,32.78
2018-01-10T02:27:11.812Z,29.48
2018-01-10T02:29:42.945Z,32.67
2018-01-10T02:32:16.550Z,31.23
2018-01-10T02:34:44.623Z,31.77
2018-01-10T02:37:13.554Z,32.35
2018-01-10T02:39:42.458Z,29.10
2018-01-10T02:42:23.614Z,31.02
2018-01-10T02:44:51.663Z,29.17
2018-01-10T02:47:19.697Z,28.23
2018-01-10T02:49:47.797Z,26.35
2018-01-10T02:52:22.041Z,28.10
2018-01-10T02:55:04.273Z,27.87
2018-01-10T02:57:34.989Z,27.42
2018-01-10T03:00:03.145Z,28.02
2018-01-10T03:02:32.422Z,31.27
2018-01-10T03:05:02.515Z,30.90
2018-01-10T03:07:33.301Z,30.65
2018-01-10T03:10:01.378Z,30.90
2018-01-10T03:12:31.498Z,31.83
2018-01-10T03:15:00.525Z,29.27
2018-01-10T03:17:32.270Z,29.23
2018-01-10T03:20:04.881Z,28.60
2018-01-10T03:22:39.969Z,25.05
2018-01-10T03:25:10.753Z,23.75
2018-01-10T03:27:39.794Z,24.87
2018-01-10T03:30:12.270Z,24.15
2018-01-10T03:32:41.314Z,24.05
2018-01-10T03:35:10.477Z,25.67
2018-01-10T03:37:42.977Z,22.73
2018-01-10T03:40:16.357Z,24.52
2018-01-10T03:42:44.453Z,25.85
2018-01-10T03:45:33.769Z,23.90
2018-01-10T03:48:05.534Z,23.45
2018-01-10T03:50:37.897Z,24.55
2018-01-10T03:53:10.077Z,25.05
2018-01-10T03:55:39.322Z,25.30
2018-01-10T03:58:07.353Z,25.12
2018-01-10T04:00:45.861Z,27.13
2018-01-10T04:03:14.873Z,23.58
2018-01-10T04:05:48.461Z,26.37
2018-01-10T04:08:16.493Z,28.23
2018-01-10T04:10:47.889Z,27.08
2018-01-10T04:13:19.429Z,25.00
2018-01-10T04:16:03.962Z,24.02
2018-01-10T04:18:37.141Z,22.37
2018-01-10T04:21:06.193Z,23.87
2018-01-10T04:23:38.545Z,25.10
2018-01-10T04:26:12.089Z,25.00
2018-01-10T04:28:42.080Z,21.12
2018-01-10T04:31:13.698Z,26.10
2018-01-10T04:33:49.014Z,26.55
2018-01-10T04:36:19.001Z,23.92
2018-01-10T04:38:52.355Z,25.10
2018-01-10T04:41:20.445Z,26.17
2018-01-10T04:43:49.438Z,25.70
2018-01-10T04:46:22.585Z,27.83
2018-01-10T04:48:54.117Z,25.90
2018-01-10T04:51:28.653Z,29.58
2018-01-10T04:53:56.896Z,31.17
2018-01-10T04:56:28.600Z,30.05
2018-01-10T04:58:57.641Z,30.75
2018-01-10T05:01:26.477Z,30.45
2018-01-10T05:03:54.733Z,32.45
2018-01-10T05:06:29.140Z,30.58
2018-01-10T05:09:02.485Z,33.13
2018-01-10T05:11:31.489Z,31.80
2018-01-10T05:14:04.605Z,39.92
2018-01-10T05:16:34.612Z,36.10
2018-01-10T05:19:10.800Z,31.90
2018-01-10T05:21:42.805Z,38.85
2018-01-10T05:24:10.913Z,41.60
2018-01-10T05:26:45.036Z,36.55
2018-01-10T05:29:13.217Z,31.23
2018-01-10T05:31:44.645Z,28.25
2018-01-10T05:34:25.001Z,28.12
2018-01-10T05:36:57.176Z,26.75
2018-01-10T05:39:25.337Z,30.23
2018-01-10T05:41:54.183Z,27.50
2018-01-10T05:44:22.228Z,27.98
2018-01-10T05:46:52.201Z,28.77
2018-01-10T05:49:26.200Z,27.60
2018-01-10T05:51:55.204Z,30.62
2018-01-10T05:54:33.336Z,29.45
2018-01-10T05:57:08.836Z,29.77
2018-01-10T05:59:56.728Z,29.33
2018-01-10T06:02:25.788Z,27.73
2018-01-10T06:05:01.713Z,31.12
2018-01-10T06:07:30.768Z,27.90
2018-01-10T06:10:00.728Z,28.77
2018-01-10T06:12:29.768Z,27.75
2018-01-10T06:15:10.001Z,32.00
2018-01-10T06:17:38.960Z,30.90
2018-01-10T06:20:11.488Z,32.15
2018-01-10T06:22:40.473Z,32.42
2018-01-10T06:25:15.112Z,33.03
2018-01-10T06:27:53.504Z,32.75
2018-01-10T06:30:36.936Z,34.22
2018-01-10T06:33:04.988Z,33.20
2018-01-10T06:35:33.028Z,32.58
2018-01-10T06:38:06.928Z,33.45
2018-01-10T06:40:34.988Z,31.27
2018-01-10T06:43:04.084Z,28.80
2018-01-10T06:45:32.171Z,29.25
2018-01-10T06:48:01.200Z,29.50
2018-01-10T06:50:34.548Z,28.27
2018-01-10T06:53:02.635Z,29.90
2018-01-10T06:55:31.700Z,26.80
2018-01-10T06:57:59.767Z,28.05
2018-01-10T07:00:28.832Z,26.33
2018-01-10T07:03:05.367Z,26.05
2018-01-10T07:05:34.428Z,24.87
2018-01-10T07:08:03.492Z,23.73
2018-01-10T07:10:36.092Z,24.95
2018-01-10T07:13:15.944Z,23.70
2018-01-10T07:15:43.972Z,24.50
2018-01-10T07:18:19.288Z,24.48
2018-01-10T07:20:49.329Z,22.98
2018-01-10T07:23:20.040Z,25.70
2018-01-10T07:25:51.509Z,23.65
2018-01-10T07:28:24.107Z,27.17
2018-01-10T07:30:52.195Z,26.80
2018-01-10T07:33:22.479Z,28.45
2018-01-10T07:36:11.075Z,26.05
2018-01-10T07:38:41.060Z,26.58
2018-01-10T07:41:15.316Z,25.50
2018-01-10T07:43:46.956Z,26.65
2018-01-10T07:46:15.049Z,27.30
2018-01-10T07:48:43.099Z,27.30
2018-01-10T07:51:14.835Z,28.38
2018-01-10T07:53:43.797Z,26.73
2018-01-10T07:56:12.753Z,25.73
2018-01-10T07:58:42.731Z,26.83
2018-01-10T08:01:34.176Z,30.83
2018-01-10T08:04:05.988Z,41.37
2018-01-10T08:06:40.609Z,33.10
2018-01-10T08:09:13.068Z,28.73
2018-01-10T08:11:41.143Z,26.20
2018-01-10T08:14:10.071Z,31.80
2018-01-10T08:16:42.107Z,30.52
2018-01-10T08:19:14.675Z,31.70
2018-01-10T08:21:42.724Z,34.90
2018-01-10T08:24:20.684Z,35.05
2018-01-10T08:26:49.711Z,33.13
2018-01-10T08:29:30.995Z,33.25
2018-01-10T08:31:59.060Z,35.13
2018-01-10T08:34:46.672Z,34.70
2018-01-10T08:40:12.696Z,32.85
2018-01-10T08:42:49.115Z,33.42
2018-01-10T08:45:18.055Z,32.95
2018-01-10T08:47:46.083Z,34.63
2018-01-10T08:53:13.107Z,38.10
2018-01-10T08:55:46.767Z,38.83
2018-01-10T08:58:15.575Z,39.17
2018-01-10T09:00:45.347Z,39.72
2018-01-10T09:03:14.271Z,43.70
2018-01-10T09:05:47.879Z,45.28
2018-01-10T09:08:17.811Z,44.13
2018-01-10T09:10:52.507Z,43.30
2018-01-10T09:13:21.315Z,42.15
2018-01-10T09:15:52.307Z,45.58
2018-01-10T09:18:21.219Z,44.17
2018-01-10T09:20:51.141Z,45.42
2018-01-10T09:23:21.128Z,47.60
2018-01-10T09:25:52.727Z,43.83
2018-01-10T09:28:21.671Z,47.97
2018-01-10T09:30:49.739Z,45.22
2018-01-10T09:33:34.003Z,45.67
2018-01-10T09:36:05.315Z,45.10
2018-01-10T09:38:34.351Z,47.55
2018-01-10T09:41:03.167Z,49.38
2018-01-10T09:43:36.123Z,47.05
2018-01-10T09:46:21.519Z,48.60
2018-01-10T09:48:50.375Z,49.38
2018-01-10T09:51:24.167Z,47.47
2018-01-10T09:53:52.203Z,47.53
2018-01-10T09:56:26.611Z,50.47
2018-01-10T09:58:55.651Z,47.47
2018-01-10T10:01:29.195Z,47.53
2018-01-10T10:04:01.950Z,49.20
2018-01-10T10:06:36.347Z,49.58
2018-01-10T10:09:04.449Z,49.08
2018-01-10T10:11:40.839Z,51.42
2018-01-10T10:14:08.935Z,61.97
2018-01-10T10:16:42.519Z,59.10
2018-01-10T10:19:15.187Z,50.12
2018-01-10T10:21:46.827Z,41.97
2018-01-10T10:24:14.879Z,31.40
2018-01-10T10:26:49.907Z,25.20
2018-01-10T10:29:20.855Z,21.27
2018-01-10T10:31:53.387Z,18.87
2018-01-10T10:34:22.347Z,16.67
2018-01-10T10:36:52.287Z,16.40
2018-01-10T10:39:23.483Z,17.17
2018-01-10T10:41:52.323Z,17.03
2018-01-10T10:44:24.155Z,16.30
2018-01-10T10:46:52.931Z,16.13
2018-01-10T10:49:20.974Z,15.77
2018-01-10T10:51:49.031Z,15.93
2018-01-10T10:54:18.055Z,15.00
2018-01-10T10:56:48.091Z,15.30
2018-01-10T10:59:24.499Z,15.60
2018-01-10T11:01:53.523Z,14.33
2018-01-10T11:04:21.551Z,15.60
2018-01-10T11:06:51.503Z,15.60
2018-01-10T11:09:24.587Z,16.03
2018-01-10T11:11:52.655Z,15.20
2018-01-10T11:14:26.211Z,15.03
2018-01-10T11:16:57.911Z,14.87
2018-01-10T11:19:30.591Z,15.87
2018-01-10T11:22:04.987Z,15.83
2018-01-10T11:24:37.006Z,15.30
2018-01-10T11:27:06.980Z,17.27
2018-01-10T11:29:47.607Z,14.70
2018-01-10T11:32:20.803Z,16.47
2018-01-10T11:34:48.974Z,14.37
2018-01-10T11:37:19.327Z,14.50
2018-01-10T11:39:47.362Z,15.00
2018-01-10T11:42:17.334Z,16.00
2018-01-10T11:44:46.286Z,14.07
2018-01-10T11:47:17.807Z,13.70
2018-01-10T11:49:52.130Z,14.00
2018-01-10T11:52:22.047Z,12.60
2018-01-10T11:54:56.686Z,13.00
2018-01-10T11:57:25.726Z,11.20
2018-01-10T11:59:55.427Z,13.07
2018-01-10T12:02:23.474Z,13.60
2018-01-10T12:04:53.402Z,12.80
2018-01-10T12:07:22.498Z,13.77
2018-01-10T12:09:50.530Z,13.10
2018-01-10T12:12:19.467Z,12.20
2018-01-10T12:14:49.206Z,10.10
2018-01-10T12:17:17.246Z,12.30
2018-01-10T12:19:46.206Z,12.30
2018-01-10T12:22:19.958Z,12.10
2018-01-10T12:24:52.678Z,11.30
2018-01-10T12:27:21.598Z,10.73
2018-01-10T12:29:50.530Z,10.80
2018-01-10T12:32:22.410Z,10.67
2018-01-10T12:34:50.430Z,11.40
2018-01-10T12:37:18.470Z,10.40
2018-01-10T12:39:47.519Z,10.13
2018-01-10T12:42:17.334Z,9.97
2018-01-10T12:44:48.605Z,11.30
2018-01-10T12:47:17.586Z,10.83
2018-01-10T12:49:47.587Z,11.20
2018-01-10T12:52:16.522Z,11.73
2018-01-10T12:54:46.489Z,10.77
2018-01-10T12:57:14.513Z,11.77
2018-01-10T12:59:45.390Z,10.70
2018-01-10T13:02:13.390Z,10.33
2018-01-10T13:04:42.337Z,10.90
2018-01-10T13:07:11.354Z,10.70
2018-01-10T13:09:46.558Z,10.43
2018-01-10T13:12:18.238Z,11.20
2018-01-10T13:14:49.062Z,11.63
2018-01-10T13:17:19.014Z,11.33
2018-01-10T13:19:47.962Z,11.33
2018-01-10T13:22:20.554Z,14.23
2018-01-10T13:24:49.334Z,13.10
2018-01-10T13:27:20.790Z,14.27
2018-01-10T13:29:49.582Z,12.90
2018-01-10T13:32:19.570Z,13.97
2018-01-10T13:34:47.601Z,12.53
2018-01-10T13:37:15.643Z,12.43
2018-01-10T13:39:44.638Z,12.70
2018-01-10T13:42:13.442Z,13.30
2018-01-10T13:44:43.444Z,12.70
2018-01-10T13:47:16.090Z,13.80
2018-01-10T13:49:44.110Z,14.20
2018-01-10T13:52:12.159Z,13.47
2018-01-10T13:54:40.210Z,12.53
2018-01-10T13:57:09.195Z,14.00
2018-01-10T13:59:40.234Z,14.73
2018-01-10T14:02:08.258Z,13.50
2018-01-10T14:04:37.198Z,13.03
2018-01-10T14:07:10.867Z,15.73
2018-01-10T14:09:38.894Z,14.73
2018-01-10T14:12:06.938Z,14.70
2018-01-10T14:14:34.981Z,15.67
2018-01-10T14:17:03.018Z,15.50
2018-01-10T14:19:31.038Z,15.87
2018-01-10T14:22:13.801Z,15.80
2018-01-10T14:24:48.650Z,14.57
2018-01-10T14:27:18.601Z,15.73
2018-01-10T14:29:47.546Z,16.57
2018-01-10T14:32:17.475Z,17.90
2018-01-10T14:34:47.386Z,16.00
2018-01-10T14:37:29.983Z,16.20
2018-01-10T14:40:11.349Z,15.20
2018-01-10T14:42:51.155Z,16.30
2018-01-10T14:45:31.565Z,15.13
2018-01-10T14:48:02.717Z,14.70
2018-01-10T14:50:35.365Z,15.40
2018-01-10T14:53:17.502Z,16.90
2018-01-10T14:55:47.421Z,16.63
2018-01-10T14:58:19.692Z,16.20
2018-01-10T15:00:47.706Z,18.20
2018-01-10T15:03:33.170Z,19.00
2018-01-10T15:06:10.113Z,19.60
2018-01-10T15:08:44.881Z,19.90
2018-01-10T15:11:12.910Z,20.42
2018-01-10T15:13:44.654Z,22.27
2018-01-10T15:16:12.678Z,22.45
2018-01-10T15:18:44.338Z,22.92
2018-01-10T15:21:13.342Z,24.75
2018-01-10T15:23:43.330Z,22.33
2018-01-10T15:26:31.022Z,24.50
2018-01-10T15:29:16.653Z,25.17
2018-01-10T15:31:49.778Z,24.85
2018-01-10T15:34:22.501Z,25.12
2018-01-10T15:36:51.406Z,29.67
2018-01-10T15:39:25.693Z,29.15
2018-01-10T15:41:53.728Z,28.15
2018-01-10T15:44:22.506Z,25.35
2018-01-10T15:46:51.294Z,21.75
2018-01-10T15:49:20.062Z,21.80
2018-01-10T15:51:53.918Z,21.52
2018-01-10T15:54:21.934Z,19.70
2018-01-10T15:56:50.941Z,18.30
2018-01-10T15:59:20.057Z,16.42
2018-01-10T16:01:48.837Z,16.73
2018-01-10T16:04:17.622Z,14.35
2018-01-10T16:06:48.302Z,16.00
2018-01-10T16:09:16.321Z,16.73
2018-01-10T16:11:45.113Z,16.35
2018-01-10T16:14:30.689Z,16.70
2018-01-10T16:17:11.821Z,19.42
2018-01-10T16:19:41.765Z,19.27
2018-01-10T16:22:13.522Z,18.90
2018-01-10T16:24:42.449Z,17.23
2018-01-10T16:27:20.545Z,18.50
2018-01-10T16:29:50.459Z,18.55
2018-01-10T16:32:25.825Z,19.25
2018-01-10T16:37:48.649Z,18.95
2018-01-10T16:40:17.569Z,16.83
2018-01-10T16:42:47.481Z,20.70
2018-01-10T16:45:17.357Z,19.40
2018-01-10T16:47:50.897Z,18.48
2018-01-10T16:50:22.645Z,18.60
2018-01-10T16:52:56.881Z,17.50
2018-01-10T16:55:26.797Z,17.42
2018-01-10T16:57:54.813Z,20.37
2018-01-10T17:00:28.569Z,19.62
2018-01-10T17:03:00.333Z,19.87
2018-01-10T17:05:30.413Z,17.52
2018-01-10T17:08:05.397Z,17.80
2018-01-10T17:10:44.117Z,17.42
2018-01-10T17:13:12.133Z,15.63
2018-01-10T17:15:41.933Z,16.10
2018-01-10T17:18:14.305Z,16.75
2018-01-10T17:20:49.609Z,15.90
2018-01-10T17:23:19.616Z,16.55
2018-01-10T17:25:56.369Z,16.30
2018-01-10T17:28:30.097Z,15.32
2018-01-10T17:31:04.879Z,16.70
2018-01-10T17:33:33.821Z,14.63
2018-01-10T17:36:11.833Z,13.68
2018-01-10T17:38:43.809Z,14.80
2018-01-10T17:41:16.553Z,15.63
2018-01-10T17:43:50.189Z,12.95
2018-01-10T17:46:18.221Z,11.60
2018-01-10T17:48:50.381Z,10.93
2018-01-10T17:51:21.936Z,11.60
2018-01-10T17:53:50.977Z,11.43
2018-01-10T17:56:19.001Z,11.73
2018-01-10T17:58:47.965Z,11.32
2018-01-10T18:01:20.465Z,11.75
2018-01-10T18:03:49.421Z,12.18
2018-01-10T18:06:18.380Z,11.45
2018-01-10T18:08:51.420Z,12.95
2018-01-10T18:11:20.217Z,11.70
2018-01-10T18:13:49.901Z,12.27
2018-01-10T18:16:22.413Z,11.68
2018-01-10T18:18:51.332Z,12.45
2018-01-10T18:21:24.524Z,12.25
2018-01-10T18:23:53.460Z,11.93
2018-01-10T18:26:21.524Z,12.88
2018-01-10T18:28:50.317Z,12.48
2018-01-10T18:31:21.577Z,12.43
2018-01-10T18:33:51.509Z,12.82
2018-01-10T18:36:19.588Z,13.50
2018-01-10T18:38:48.841Z,13.27
2018-01-10T18:41:16.981Z,13.95
2018-01-10T18:43:45.041Z,15.98
2018-01-10T18:46:16.500Z,14.80
2018-01-10T18:48:51.664Z,14.65
2018-01-10T18:51:20.684Z,15.43
2018-01-10T18:53:50.680Z,17.08
2018-01-10T18:56:21.428Z,15.90
2018-01-10T18:58:50.388Z,16.33
2018-01-10T19:01:22.309Z,15.60
2018-01-10T19:03:51.220Z,17.35
2018-01-10T19:06:19.253Z,17.73
2018-01-10T19:08:47.363Z,16.62
2018-01-10T19:11:16.388Z,16.45
2018-01-10T19:13:48.460Z,17.70
2018-01-10T19:16:18.268Z,18.10
2018-01-10T19:18:48.108Z,18.37
2018-01-10T19:21:16.199Z,19.30
2018-01-10T19:23:48.828Z,19.75
2018-01-10T19:26:19.545Z,20.75
2018-01-10T19:28:47.572Z,18.90
2018-01-10T19:31:15.596Z,18.90
2018-01-10T19:33:44.524Z,21.02
2018-01-10T19:36:12.564Z,20.73
2018-01-10T19:38:45.568Z,22.15
2018-01-10T19:41:13.636Z,22.65
2018-01-10T19:43:42.580Z,21.30
2018-01-10T19:46:32.224Z,23.02
2018-01-10T19:49:00.250Z,21.02
2018-01-10T19:51:29.232Z,22.37
2018-01-10T19:53:58.447Z,20.80
2018-01-10T19:56:33.984Z,20.98
2018-01-10T19:59:03.009Z,21.15
2018-01-10T20:01:43.572Z,22.45
2018-01-10T20:04:12.392Z,22.15
2018-01-10T20:06:45.132Z,24.15
2018-01-10T20:09:15.112Z,24.05
2018-01-10T20:11:49.120Z,23.05
2018-01-10T20:14:18.268Z,22.10
2018-01-10T20:16:48.320Z,23.80
2018-01-10T20:19:17.432Z,22.70
2018-01-10T20:21:49.940Z,22.55
2018-01-10T20:24:32.880Z,23.20
2018-01-10T20:27:02.876Z,23.20
2018-01-10T20:29:35.472Z,23.20
2018-01-10T20:32:09.892Z,23.33
2018-01-10T20:34:41.704Z,24.45
2018-01-10T20:37:10.516Z,24.05
2018-01-10T20:39:50.000Z,23.90
2018-01-10T20:42:20.216Z,23.67
2018-01-10T20:44:50.164Z,25.23
2018-01-10T20:47:22.788Z,22.60
2018-01-10T20:49:55.612Z,23.87
2018-01-10T20:52:27.428Z,26.05
2018-01-10T20:54:58.276Z,22.77
2018-01-10T20:57:30.116Z,24.45
2018-01-10T21:00:05.732Z,23.98
2018-01-10T21:02:36.364Z,25.80
2018-01-10T21:05:12.952Z,25.98
2018-01-10T21:07:44.365Z,26.05
2018-01-10T21:10:12.552Z,25.60
2018-01-10T21:12:42.340Z,25.42
2018-01-10T21:15:11.516Z,25.10
2018-01-10T21:17:42.020Z,27.80
2018-01-10T21:20:11.008Z,25.17
2018-01-10T21:22:39.048Z,25.50
2018-01-10T21:25:19.709Z,26.95
2018-01-10T21:28:02.913Z,26.37
2018-01-10T21:30:34.056Z,27.35
2018-01-10T21:33:16.539Z,26.67
2018-01-10T21:35:50.439Z,26.85
2018-01-10T21:41:08.411Z,28.70
2018-01-10T21:46:42.164Z,27.10
2018-01-10T21:49:16.999Z,28.65
2018-01-10T21:51:49.659Z,27.95
2018-01-10T21:54:21.888Z,26.87
2018-01-10T22:02:44.416Z,27.27
2018-01-10T22:05:14.676Z,25.90
2018-01-10T22:07:47.847Z,26.17
2018-01-10T22:10:29.239Z,26.98
2018-01-10T22:16:10.911Z,25.73
2018-01-10T22:46:39.687Z,30.42
2018-01-10T22:49:21.219Z,31.45
2018-01-10T22:52:03.596Z,30.62
2018-01-10T22:54:43.719Z,32.35
2018-01-10T22:57:15.163Z,29.35
2018-01-10T22:59:47.555Z,30.73
2018-01-10T23:02:23.611Z,30.92
2018-01-10T23:04:58.247Z,29.48
2018-01-10T23:31:32.454Z,30.45
2018-01-10T23:34:04.367Z,32.63
2018-01-10T23:36:48.563Z,31.42
2018-01-10T23:42:18.867Z,30.55
2018-01-10T23:44:52.596Z,32.65
2018-01-10T23:47:29.799Z,33.28
2018-01-10T23:55:20.555Z,38.50
